Time;durP1;ratioP1;P1;durP2;ratioP2;P2;SDS_P1;SDS_P2;PMS_P1;PMS_P2;Temp;Humidity;BMP_temperature;BMP_pressure;BME280_temperature;BME280_humidity;BME280_pressure;Samples;Min_cycle;Max_cycle;Signal;HPM_P1;HPM_P2
2022/12/22 03:25:53;;;;;;;6.67;2.83;;;8.60;99.90;;;7.47;100.00;96660.72;5031100;28;20398;-74
2022/12/22 03:28:21;;;;;;;6.07;2.58;;;8.50;99.90;;;7.42;100.00;96665.94;5031264;28;20403;-74
2022/12/22 03:30:54;;;;;;;3.70;2.35;;;8.50;99.90;;;7.47;100.00;96665.97;5030842;28;20526;-75
2022/12/22 03:33:22;;;;;;;4.93;2.40;;;8.50;99.90;;;7.49;100.00;96656.00;5030131;28;20781;-74
2022/12/22 03:35:47;;;;;;;5.03;2.38;;;8.50;99.90;;;7.52;100.00;96639.69;5030955;28;20403;-74
2022/12/22 03:38:13;;;;;;;4.07;2.70;;;8.50;99.90;;;7.52;100.00;96625.75;5030847;28;20809;-72
2022/12/22 03:40:39;;;;;;;6.22;2.53;;;8.50;99.90;;;7.52;100.00;96625.75;5030706;28;20461;-74
2022/12/22 03:48:39;;;;;;;4.32;2.28;;;8.60;99.90;;;7.63;100.00;96630.03;5030876;28;20748;-74
2022/12/22 03:51:06;;;;;;;5.53;2.50;;;8.60;99.90;;;7.65;100.00;96628.75;5030413;28;20398;-74
2022/12/22 03:53:32;;;;;;;3.17;1.70;;;8.70;99.90;;;7.64;100.00;96631.63;5028578;28;20415;-75
2022/12/22 03:55:58;;;;;;;5.80;2.15;;;8.60;99.90;;;7.65;100.00;96626.13;5030434;28;20560;-74
2022/12/22 03:58:24;;;;;;;2.53;1.98;;;8.70;99.90;;;7.71;100.00;96637.50;5030587;28;20907;-74
2022/12/22 04:00:50;;;;;;;4.53;2.00;;;8.70;99.90;;;7.76;100.00;96632.25;5030416;28;20399;-74
2022/12/22 04:03:16;;;;;;;2.97;1.80;;;8.70;99.90;;;7.79;100.00;96634.41;5029845;28;20502;-74
2022/12/22 04:05:44;;;;;;;5.72;2.00;;;8.80;99.90;;;7.84;100.00;96626.53;5030482;28;20417;-75
2022/12/22 04:08:10;;;;;;;5.00;1.80;;;8.80;99.90;;;7.87;100.00;96619.97;5030448;28;20465;-75
2022/12/22 04:13:21;;;;;;;4.18;1.88;;;8.90;99.90;;;7.87;100.00;96620.75;5029543;28;20398;-74
2022/12/22 04:15:47;;;;;;;4.72;1.90;;;8.90;99.90;;;7.89;100.00;96623.94;5030288;28;20871;-74
2022/12/22 04:18:13;;;;;;;4.53;1.60;;;8.90;99.90;;;7.88;100.00;96617.09;5030276;28;20980;-75
2022/12/22 04:20:39;;;;;;;4.38;1.90;;;8.90;99.90;;;7.89;100.00;96617.88;5029798;28;20456;-74
2022/12/22 04:23:06;;;;;;;2.90;1.80;;;8.90;99.90;;;7.87;100.00;96614.69;5028943;28;20884;-74
2022/12/22 04:25:32;;;;;;;4.57;1.77;;;8.80;99.90;;;7.87;100.00;96609.44;5030150;28;20403;-74
2022/12/22 04:27:58;;;;;;;3.97;1.73;;;8.90;99.90;;;7.86;100.00;96603.38;5030202;28;20445;-74
2022/12/22 04:30:23;;;;;;;6.20;1.70;;;8.90;99.90;;;7.86;100.00;96603.38;5029807;28;20501;-74
2022/12/22 04:32:49;;;;;;;5.18;2.08;;;8.90;99.90;;;7.83;100.00;96595.94;5029228;28;20407;-74
2022/12/22 04:35:15;;;;;;;4.90;2.00;;;8.90;99.90;;;7.83;100.00;96590.69;5029919;28;20461;-75
2022/12/22 04:37:41;;;;;;;3.78;1.80;;;8.80;99.90;;;7.82;100.00;96585.69;5029948;28;20457;-75
2022/12/22 04:40:09;;;;;;;4.15;1.65;;;8.80;99.90;;;7.85;100.00;96580.69;5029898;28;20497;-74
2022/12/22 04:42:35;;;;;;;4.97;1.80;;;8.90;99.90;;;7.80;100.00;96575.41;5029220;28;20797;-75
2022/12/22 04:45:01;;;;;;;3.17;1.67;;;8.80;99.90;;;7.81;100.00;96576.19;5029916;28;20399;-75
2022/12/22 04:47:27;;;;;;;5.32;1.90;;;8.80;99.90;;;7.80;100.00;96577.22;5029765;28;20399;-74
2022/12/22 04:49:54;;;;;;;2.60;1.90;;;8.80;99.90;;;7.77;100.00;96576.69;5029683;28;20449;-74
2022/12/22 04:52:20;;;;;;;4.20;1.83;;;8.80;99.90;;;7.79;100.00;96573.81;5027926;28;21003;-74
2022/12/22 04:54:46;;;;;;;5.95;2.00;;;8.80;99.90;;;7.80;100.00;96575.41;5029589;28;20485;-75
2022/12/22 04:57:13;;;;;;;4.65;1.73;;;8.80;99.90;;;7.80;100.00;96574.59;5029762;28;20887;-74
2022/12/22 04:59:39;;;;;;;3.72;1.65;;;8.80;99.90;;;7.84;100.00;96578.31;5029655;28;20426;-74
2022/12/22 05:02:05;;;;;;;6.40;2.15;;;8.80;99.90;;;7.86;100.00;96569.09;5028879;28;20750;-74
2022/12/22 05:04:31;;;;;;;5.50;1.88;;;8.90;99.90;;;7.88;100.00;96572.28;5029439;28;20509;-74
2022/12/22 05:06:57;;;;;;;3.17;1.70;;;8.90;99.90;;;7.86;100.00;96574.38;5029651;28;20399;-74
2022/12/22 05:09:23;;;;;;;7.03;2.10;;;8.90;99.90;;;7.87;100.00;96578.59;5028393;28;20495;-74
2022/12/22 05:11:48;;;;;;;12.18;3.00;;;8.90;99.90;;;7.85;100.00;96569.34;5028933;28;20441;-74
2022/12/22 05:14:16;;;;;;;4.57;1.95;;;8.90;99.90;;;7.89;100.00;96575.72;5025737;28;20411;-74
2022/12/22 05:16:42;;;;;;;6.07;1.90;;;8.90;99.90;;;7.89;100.00;96581.00;5020821;28;20419;-74
2022/12/22 05:19:07;;;;;;;7.90;2.13;;;8.90;99.90;;;7.91;100.00;96581.50;5020209;28;20498;-74
2022/12/22 05:21:33;;;;;;;7.80;1.83;;;8.90;99.90;;;7.95;100.00;96570.22;5015450;28;20427;-73
2022/12/22 05:23:59;;;;;;;7.85;2.30;;;8.90;99.90;;;8.07;100.00;96572.66;5019731;28;20422;-74
2022/12/22 05:26:25;;;;;;;6.95;1.90;;;9.00;99.90;;;8.04;100.00;96573.94;5022364;28;20391;-74
2022/12/22 05:28:51;;;;;;;5.57;1.75;;;9.00;99.90;;;7.98;100.00;96566.28;5020377;28;20432;-73
2022/12/22 05:31:21;;;;;;;10.93;2.07;;;9.00;99.90;;;7.92;100.00;96565.47;5016009;28;20415;-73
2022/12/22 05:33:48;;;;;;;8.98;2.50;;;8.90;99.90;;;7.98;100.00;96572.34;5018378;28;20400;-73
2022/12/22 05:36:14;;;;;;;10.63;2.20;;;9.00;99.90;;;7.94;100.00;96568.63;5021902;28;20415;-74
2022/12/22 05:38:40;;;;;;;6.45;2.40;;;9.00;99.90;;;7.90;100.00;96570.19;5023864;28;20422;-74
2022/12/22 05:41:07;;;;;;;6.75;1.80;;;8.90;99.90;;;7.92;100.00;96572.56;5022109;28;20412;-74
2022/12/22 05:43:34;;;;;;;8.27;2.10;;;8.90;99.90;;;7.89;100.00;96568.63;5021694;28;20409;-74
2022/12/22 05:46:02;;;;;;;9.10;2.42;;;8.90;99.90;;;7.83;100.00;96571.44;5023814;28;20457;-74
2022/12/22 05:48:30;;;;;;;7.10;2.33;;;8.90;99.90;;;7.90;100.00;96572.81;5022421;28;20396;-73
2022/12/22 05:50:56;;;;;;;7.63;1.88;;;8.90;99.90;;;7.86;100.00;96571.75;5021748;28;20395;-73
2022/12/22 05:53:22;;;;;;;12.35;2.22;;;8.90;99.90;;;7.98;100.00;96566.28;5020988;28;20414;-73
2022/12/22 05:55:48;;;;;;;10.23;1.93;;;9.00;99.90;;;8.02;100.00;96557.63;5019523;28;20768;-73
2022/12/22 05:58:14;;;;;;;6.30;1.90;;;9.00;99.90;;;7.98;100.00;96551.25;5004208;28;20926;-73
2022/12/22 06:00:40;;;;;;;8.07;2.40;;;9.00;99.90;;;7.95;100.00;96541.25;5024408;28;20505;-73
2022/12/22 06:03:06;;;;;;;7.18;2.30;;;9.00;99.90;;;7.94;100.00;96539.66;5024494;28;20418;-74
2022/12/22 06:05:33;;;;;;;7.47;2.00;;;8.90;99.90;;;7.91;100.00;96534.09;5022775;28;20689;-73
2022/12/22 06:07:59;;;;;;;7.70;2.20;;;8.90;99.90;;;7.89;100.00;96533.56;5021237;28;20491;-73
2022/12/22 06:10:25;;;;;;;6.20;2.13;;;8.90;99.90;;;7.81;100.00;96540.09;5026047;28;20575;-74
2022/12/22 06:12:51;;;;;;;9.73;2.25;;;8.80;99.90;;;7.69;100.00;96552.66;5021195;28;20490;-74
2022/12/22 06:15:17;;;;;;;12.98;2.85;;;8.70;99.90;;;7.61;100.00;96564.44;5023247;28;20407;-74
2022/12/22 06:17:43;;;;;;;9.63;2.30;;;8.70;99.90;;;7.68;100.00;96556.31;5021392;28;20495;-77
2022/12/22 06:20:10;;;;;;;9.50;2.53;;;8.70;99.90;;;7.78;100.00;96549.28;5021780;28;20401;-73
2022/12/22 06:22:38;;;;;;;6.60;2.33;;;8.70;99.90;;;7.69;100.00;96545.53;5025440;28;20940;-73
2022/12/22 06:25:04;;;;;;;13.68;2.63;;;8.70;99.90;;;7.76;100.00;96555.84;5021519;28;20423;-74
2022/12/22 06:27:30;;;;;;;16.73;2.70;;;8.70;99.90;;;7.69;100.00;96553.44;5021141;28;20415;-74
2022/12/22 06:29:56;;;;;;;12.00;2.70;;;8.70;99.90;;;7.67;100.00;96541.56;5025212;28;20480;-73
2022/12/22 06:32:22;;;;;;;7.32;2.40;;;8.70;99.90;;;7.57;100.00;96546.78;5027068;28;20490;-74
2022/12/22 06:34:48;;;;;;;14.23;2.80;;;8.60;99.90;;;7.48;100.00;96543.81;5022293;28;20489;-75
2022/12/22 06:37:14;;;;;;;10.48;2.70;;;8.50;99.90;;;7.43;100.00;96548.25;5028751;28;20427;-76
2022/12/22 06:39:41;;;;;;;13.68;2.70;;;8.50;99.90;;;7.42;100.00;96552.72;5014712;28;20488;-76
2022/12/22 06:44:54;;;;;;;15.77;3.13;;;8.50;99.90;;;7.65;100.00;96554.22;5024199;28;20480;-76
2022/12/22 06:47:20;;;;;;;16.08;3.20;;;8.60;99.90;;;7.72;100.00;96565.31;5013686;28;20397;-76
2022/12/22 06:49:46;;;;;;;16.27;3.00;;;8.70;99.90;;;7.86;100.00;96560.41;5026333;28;20401;-76
2022/12/22 06:52:12;;;;;;;12.65;3.10;;;8.80;99.90;;;7.90;100.00;96559.63;5016642;28;20497;-75
2022/12/22 06:54:38;;;;;;;15.82;3.40;;;8.90;99.90;;;8.08;100.00;96561.88;5024179;28;20486;-76
2022/12/22 06:57:05;;;;;;;16.00;3.03;;;9.00;99.90;;;8.10;100.00;96559.78;5015657;28;20416;-74
2022/12/22 06:59:31;;;;;;;12.57;2.72;;;9.10;99.90;;;8.18;100.00;96560.34;5028096;28;20424;-74
2022/12/22 07:01:57;;;;;;;12.40;2.72;;;9.10;99.90;;;8.14;100.00;96560.84;5017326;28;20411;-75
2022/12/22 07:04:22;;;;;;;15.18;3.25;;;9.10;99.90;;;8.16;100.00;96566.66;5021337;28;20482;-76
2022/12/22 07:06:48;;;;;;;14.80;3.60;;;9.10;99.90;;;8.26;100.00;96579.13;5017851;28;20401;-74
2022/12/22 07:09:14;;;;;;;15.25;2.97;;;9.20;99.90;;;8.33;100.00;96582.34;5022452;28;20616;-75
2022/12/22 07:11:40;;;;;;;12.25;3.17;;;9.20;99.90;;;8.31;100.00;96592.34;5019891;28;20419;-75
2022/12/22 07:14:09;;;;;;;9.85;2.60;;;9.30;99.90;;;8.22;100.00;96577.22;5026016;28;20422;-75
2022/12/22 07:16:35;;;;;;;14.15;3.28;;;9.20;99.90;;;8.19;100.00;96588.31;5024868;28;20925;-76
2022/12/22 07:19:01;;;;;;;19.65;3.40;;;9.20;99.90;;;8.22;100.00;96578.03;5020731;28;20411;-76
2022/12/22 07:21:27;;;;;;;15.95;2.90;;;9.10;99.90;;;8.24;100.00;96575.13;5020900;28;20411;-74
2022/12/22 07:23:53;;;;;;;18.17;3.07;;;9.20;99.90;;;8.07;100.00;96588.47;5016340;28;20516;-74
2022/12/22 07:26:19;;;;;;;13.00;2.53;;;9.10;99.90;;;8.11;100.00;96595.63;5025616;28;20483;-73
2022/12/22 07:28:45;;;;;;;13.05;2.83;;;9.10;99.90;;;8.02;100.00;96593.72;5021001;28;20906;-72
2022/12/22 07:31:19;;;;;;;16.48;2.78;;;9.00;99.90;;;7.99;100.00;96610.03;5018924;28;20405;-73
2022/12/22 07:33:47;;;;;;;11.05;2.45;;;9.00;99.90;;;7.99;100.00;96604.75;5019390;28;20405;-73
2022/12/22 07:36:16;;;;;;;15.25;3.05;;;9.00;99.90;;;7.97;100.00;96612.91;5018674;28;20428;-74
2022/12/22 07:38:44;;;;;;;18.83;3.42;;;8.90;99.90;;;8.08;100.00;96611.94;5027403;28;20413;-73
2022/12/22 07:43:59;;;;;;;9.77;2.43;;;9.10;99.90;;;8.10;100.00;96601.97;5016484;28;20476;-73
2022/12/22 07:46:29;;;;;;;8.05;2.55;;;9.10;99.90;;;8.07;100.00;96604.28;5019106;28;20473;-72
2022/12/22 07:51:41;;;;;;;15.07;3.42;;;9.10;99.90;;;8.21;100.00;96618.59;5028720;28;20912;-73
2022/12/22 07:54:09;;;;;;;16.13;2.72;;;9.10;99.90;;;8.28;100.00;96626.28;5026224;28;20403;-72
2022/12/22 07:56:35;;;;;;;12.25;2.95;;;9.20;99.90;;;8.21;100.00;96567.72;5026720;28;20498;-72
2022/12/22 07:59:01;;;;;;;22.00;3.20;;;9.20;99.90;;;8.16;100.00;96540.31;5020054;28;20808;-72
2022/12/22 08:01:28;;;;;;;15.27;3.10;;;9.20;99.90;;;8.07;100.00;96593.75;4996311;28;20415;-72
2022/12/22 08:03:55;;;;;;;15.37;2.80;;;9.10;99.90;;;8.13;100.00;96584.81;5024366;28;20426;-71
2022/12/22 08:06:21;;;;;;;14.07;3.10;;;9.10;99.90;;;8.00;100.00;96582.63;5018156;28;20768;-75
2022/12/22 08:08:47;;;;;;;12.68;2.45;;;9.00;99.90;;;7.88;100.00;96597.84;5023569;28;20450;-75
2022/12/22 08:11:13;;;;;;;17.33;2.90;;;8.90;99.90;;;7.78;100.00;96594.09;5023738;28;20411;-73
2022/12/22 08:13:39;;;;;;;14.05;2.50;;;8.80;99.90;;;7.73;100.00;96603.78;5005128;28;20477;-72
2022/12/22 08:16:08;;;;;;;14.38;3.00;;;8.70;99.90;;;7.66;100.00;96590.03;5021740;28;20912;-71
2022/12/22 08:18:36;;;;;;;15.75;2.80;;;8.70;99.90;;;7.63;100.00;96590.53;5013135;28;20553;-71
2022/12/22 08:21:03;;;;;;;16.83;3.13;;;8.60;99.90;;;7.66;100.00;96587.41;5014562;28;20423;-71
2022/12/22 08:23:30;;;;;;;17.75;3.20;;;8.70;99.90;;;7.76;100.00;96584.84;5021273;28;20464;-71
2022/12/22 08:26:01;;;;;;;17.33;2.80;;;8.70;99.90;;;7.82;100.00;96586.44;5027887;28;20495;-71
2022/12/22 08:28:27;;;;;;;14.65;2.88;;;8.80;99.90;;;7.77;100.00;96596.97;5021880;28;20403;-72
2022/12/22 08:30:54;;;;;;;18.45;2.97;;;8.80;99.90;;;7.88;100.00;96587.31;5021288;28;20464;-73
2022/12/22 08:33:20;;;;;;;12.50;2.85;;;8.80;99.90;;;7.80;100.00;96582.50;5020445;28;20415;-71
2022/12/22 08:35:47;;;;;;;14.43;2.30;;;8.80;99.90;;;7.75;100.00;96580.59;5027690;28;20742;-71
2022/12/22 08:38:14;;;;;;;15.85;2.70;;;8.70;99.90;;;7.69;100.00;96579.00;5027391;28;20446;-70
2022/12/22 08:40:43;;;;;;;12.48;2.63;;;8.70;99.90;;;7.70;100.00;96580.56;5026745;28;20408;-71
2022/12/22 08:43:10;;;;;;;15.98;2.95;;;8.70;99.90;;;7.75;100.00;96585.88;5028196;28;20406;-71
2022/12/22 08:45:36;;;;;;;12.43;2.83;;;8.70;99.90;;;7.84;100.00;96609.91;5027775;28;20408;-72
2022/12/22 08:48:03;;;;;;;17.42;2.80;;;8.80;99.90;;;7.89;100.00;96607.34;5024798;28;20478;-72
2022/12/22 08:50:44;;;;;;;17.50;3.08;;;8.90;99.90;;;7.96;100.00;96608.72;5010925;28;20595;-72
2022/12/22 08:53:13;;;;;;;18.10;3.58;;;9.00;99.90;;;8.00;100.00;96609.78;5025386;28;20880;-72
2022/12/22 08:55:40;;;;;;;17.20;2.92;;;9.00;99.90;;;8.09;100.00;96604.84;5027693;28;20494;-70
2022/12/22 08:58:06;;;;;;;16.38;3.13;;;9.10;99.90;;;8.08;100.00;96611.94;5027852;28;20528;-71
2022/12/22 09:00:32;;;;;;;11.13;2.58;;;9.10;99.90;;;8.24;100.00;96601.50;5009788;28;20401;-71
2022/12/22 09:02:58;;;;;;;26.05;4.00;;;9.20;99.90;;;8.35;100.00;96608.44;5016632;28;20778;-70
2022/12/22 09:05:23;;;;;;;18.03;3.57;;;9.30;99.90;;;8.39;100.00;96615.59;5010280;28;20415;-72
2022/12/22 09:07:49;;;;;;;12.90;3.00;;;9.40;99.90;;;8.54;100.00;96615.69;5028298;28;20903;-74
2022/12/22 09:10:17;;;;;;;8.90;2.60;;;9.50;99.90;;;8.72;100.00;96605.75;5033118;28;20421;-73
2022/12/22 09:12:43;;;;;;;14.88;2.92;;;9.70;99.90;;;8.85;100.00;96615.81;5032839;28;20442;-73
2022/12/22 09:15:09;;;;;;;19.92;2.95;;;9.80;99.90;;;8.91;100.00;96618.19;5033656;28;20438;-72
2022/12/22 09:17:36;;;;;;;16.00;3.13;;;9.90;99.90;;;8.85;100.00;96616.59;5033585;28;20417;-76
2022/12/22 09:20:04;;;;;;;18.17;3.00;;;9.80;99.90;;;8.76;100.00;96630.53;5033519;28;20398;-76
2022/12/22 09:22:30;;;;;;;13.85;3.20;;;9.70;99.90;;;8.57;100.00;96622.25;5032789;28;20952;-71
2022/12/22 09:24:56;;;;;;;15.57;2.97;;;9.50;99.90;;;8.43;100.00;96629.84;5033237;28;20399;-72
2022/12/22 09:27:26;;;;;;;13.75;2.78;;;9.40;99.90;;;8.30;100.00;96632.91;5022007;28;20416;-71
2022/12/22 09:29:52;;;;;;;18.48;3.00;;;9.30;99.90;;;8.14;100.00;96634.66;5047935;22;20979;-70
2022/12/22 09:32:18;;;;;;;20.08;3.22;;;9.20;99.90;;;8.07;100.00;96635.91;5060929;28;20400;-71
2022/12/22 09:34:44;;;;;;;17.60;2.83;;;9.10;99.90;;;8.02;100.00;96634.06;5062957;28;20426;-76
2022/12/22 09:37:10;;;;;;;24.93;4.30;;;9.00;99.90;;;8.01;100.00;96631.66;5069770;28;20466;-77
2022/12/22 09:39:35;;;;;;;16.88;3.10;;;9.00;99.90;;;8.00;100.00;96641.41;5069576;28;20814;-76
2022/12/22 09:42:01;;;;;;;21.67;3.33;;;9.00;99.90;;;7.98;100.00;96642.69;5044502;28;20513;-76
2022/12/22 09:44:33;;;;;;;18.60;3.50;;;9.00;99.90;;;8.02;100.00;96641.97;5043710;28;20409;-76
2022/12/22 09:47:02;;;;;;;14.88;2.85;;;9.00;99.90;;;8.01;100.00;96635.09;5050368;28;20484;-75
2022/12/22 09:49:28;;;;;;;21.52;3.40;;;9.00;99.90;;;8.01;100.00;96635.09;5047897;28;20419;-75
2022/12/22 09:51:57;;;;;;;18.35;3.40;;;9.00;99.90;;;7.97;100.00;96641.13;5046466;28;20504;-75
2022/12/22 09:54:24;;;;;;;20.88;3.00;;;9.00;99.90;;;7.96;100.00;96621.88;5050748;28;20397;-75
2022/12/22 09:56:51;;;;;;;23.75;2.63;;;9.00;99.90;;;7.93;100.00;96617.13;5055608;28;20821;-75
2022/12/22 09:59:19;;;;;;;18.40;2.88;;;9.00;99.90;;;8.02;100.00;96620.88;5030773;28;20554;-75
2022/12/22 10:02:15;;;;;;;18.60;3.10;;;9.00;99.90;;;8.22;100.00;96637.84;5032682;28;20401;-76
2022/12/22 10:05:04;;;;;;;20.17;2.60;;;9.10;99.90;;;8.25;100.00;96632.09;5049297;28;20781;-75
2022/12/22 10:07:38;;;;;;;21.27;3.15;;;9.20;99.90;;;8.37;100.00;96632.72;5048382;28;20435;-75
2022/12/22 10:10:06;;;;;;;12.70;3.15;;;9.30;99.90;;;8.45;100.00;96640.94;5047392;28;20496;-76
2022/12/22 10:12:32;;;;;;;13.43;3.03;;;9.50;99.90;;;8.62;100.00;96640.78;5048084;28;20405;-75
2022/12/22 10:15:09;;;;;;;21.88;3.58;;;9.50;99.90;;;8.52;100.00;96651.25;5050767;28;20542;-76
2022/12/22 10:17:37;;;;;;;15.23;2.78;;;9.50;99.90;;;8.57;100.00;96647.88;5038476;28;20424;-76
2022/12/22 10:20:19;;;;;;;11.88;2.67;;;9.60;99.90;;;8.52;100.00;96653.91;5047918;28;20883;-76
2022/12/22 10:22:49;;;;;;;14.52;2.20;;;9.50;99.90;;;8.68;100.00;96674.03;5046603;28;20510;-75
2022/12/22 10:25:32;;;;;;;15.00;3.00;;;9.60;99.90;;;8.98;100.00;96662.03;5051054;28;20480;-76
2022/12/22 10:28:01;;;;;;;10.50;2.25;;;9.90;99.90;;;8.90;100.00;96665.97;5045593;28;20804;-76
2022/12/22 10:30:30;;;;;;;8.65;2.58;;;9.90;99.90;;;8.97;100.00;96665.72;5040810;28;20411;-75
2022/12/22 10:33:04;;;;;;;14.60;2.73;;;9.90;99.90;;;8.82;100.00;96669.88;5046573;28;20535;-76
2022/12/22 10:35:45;;;;;;;12.40;2.53;;;9.80;99.90;;;9.04;100.00;96679.47;5032417;28;20884;-76
2022/12/22 10:38:21;;;;;;;8.95;2.40;;;9.90;99.90;;;8.84;100.00;96678.34;5022666;28;20510;-76
2022/12/22 10:40:49;;;;;;;11.18;2.30;;;9.80;99.90;;;8.87;100.00;96684.97;5038203;28;20489;-77
2022/12/22 10:43:21;;;;;;;11.43;2.47;;;9.80;99.90;;;8.79;100.00;96683.63;5043117;28;20405;-76
2022/12/22 10:45:48;;;;;;;13.52;2.40;;;9.70;99.90;;;8.72;100.00;96674.34;5046501;28;20752;-76
2022/12/22 10:48:16;;;;;;;9.77;2.60;;;9.70;99.90;;;8.77;100.00;96669.06;5032950;28;20413;-76
2022/12/22 10:50:47;;;;;;;11.43;2.05;;;9.70;99.90;;;8.69;100.00;96666.91;5051169;28;20393;-75
2022/12/22 10:53:13;;;;;;;9.15;2.53;;;9.70;99.90;;;8.69;100.00;96673.00;5050331;28;20496;-75
2022/12/22 10:55:39;;;;;;;9.75;2.33;;;9.70;99.90;;;8.67;100.00;96661.91;5050885;28;20794;-76
2022/12/22 10:58:16;;;;;;;15.18;2.40;;;9.60;99.90;;;8.66;100.00;96656.88;5051176;28;20470;-76
2022/12/22 11:00:43;;;;;;;12.37;2.50;;;9.60;99.90;;;8.62;100.00;96653.97;5050741;28;20405;-79
2022/12/22 11:03:13;;;;;;;14.95;2.65;;;9.60;99.90;;;8.64;100.00;96643.16;5050094;28;20405;-76
2022/12/22 11:05:43;;;;;;;7.82;2.35;;;9.60;99.90;;;8.70;100.00;96652.69;5049750;28;20439;-75
2022/12/22 11:08:18;;;;;;;10.75;1.98;;;9.60;99.90;;;8.85;100.00;96661.47;5049756;28;20432;-75
2022/12/22 11:10:51;;;;;;;12.90;1.83;;;9.80;99.90;;;9.16;100.00;96662.38;5048069;28;20496;-75
2022/12/22 11:13:50;;;;;;;10.48;2.15;;;10.10;99.90;;;9.67;100.00;96644.00;5047404;28;20914;-75
2022/12/22 11:16:28;;;;;;;8.95;2.03;;;10.60;99.90;;;9.93;100.00;96647.41;5047442;28;20488;-75
2022/12/22 11:19:10;;;;;;;6.45;1.85;;;10.90;99.90;;;10.40;100.00;96645.31;5049611;28;20413;-73
2022/12/22 11:21:45;;;;;;;7.50;1.60;;;11.20;99.90;;;10.66;100.00;96639.97;5050381;28;20393;-73
2022/12/22 11:24:30;;;;;;;5.07;1.60;;;11.50;99.90;;;10.57;100.00;96645.00;5047583;28;20417;-73
2022/12/22 11:27:15;;;;;;;7.57;1.70;;;11.50;99.90;;;10.82;100.00;96642.28;5047423;28;20907;-76
2022/12/22 11:30:04;;;;;;;6.20;1.90;;;11.60;99.90;;;10.91;100.00;96637.22;5048736;28;20416;-76
2022/12/22 11:33:00;;;;;;;6.68;1.45;;;11.70;99.90;;;10.92;100.00;96636.16;5048895;28;20406;-74
2022/12/22 11:35:55;;;;;;;7.28;1.40;;;11.80;99.90;;;10.85;100.00;96641.75;5048706;28;20421;-75
2022/12/22 11:38:37;;;;;;;5.30;1.50;;;11.80;99.90;;;10.51;100.00;96627.56;5050944;28;20409;-75
2022/12/22 11:41:16;;;;;;;2.65;1.20;;;11.50;99.90;;;10.41;100.00;96654.03;5047727;28;20419;-75
2022/12/22 11:43:59;;;;;;;6.10;1.50;;;11.30;99.90;;;10.55;100.00;96660.34;5050381;28;20407;-79
2022/12/22 11:46:33;;;;;;;5.70;1.65;;;11.40;99.90;;;10.35;100.00;96660.41;5050717;28;20401;-75
2022/12/22 11:49:49;;;;;;;7.45;1.95;;;11.30;99.90;;;10.42;100.00;96659.06;5050062;28;20945;-76
2022/12/22 11:52:37;;;;;;;5.13;1.48;;;11.30;99.90;;;10.34;100.00;96651.66;5047364;28;20393;-76
2022/12/22 11:55:34;;;;;;;5.55;2.03;;;11.20;99.90;;;10.28;100.00;96654.59;5044273;28;20398;-76
2022/12/22 11:58:28;;;;;;;4.45;1.60;;;11.10;99.90;;;10.16;100.00;96661.97;5002608;28;20794;-76
2022/12/22 12:01:09;;;;;;;4.53;1.70;;;11.10;99.90;;;10.25;100.00;96660.41;5029990;28;20810;-75
2022/12/22 12:04:12;;;;;;;4.07;1.50;;;11.20;99.90;;;10.28;100.00;96665.97;5048266;28;20397;-75
2022/12/22 12:06:58;;;;;;;6.68;1.65;;;11.10;99.90;;;10.32;100.00;96663.56;5034548;28;20530;-75
2022/12/22 12:09:42;;;;;;;4.13;1.58;;;11.20;99.90;;;10.26;100.00;96656.69;5049058;28;20401;-75
2022/12/22 12:12:20;;;;;;;2.35;1.25;;;11.20;99.90;;;10.29;100.00;96675.50;5049348;28;20398;-75
2022/12/22 12:14:57;;;;;;;3.58;1.30;;;11.20;99.90;;;10.48;100.00;96671.22;5048924;28;20838;-77
2022/12/22 12:17:41;;;;;;;4.07;1.48;;;11.30;99.90;;;10.61;100.00;96677.00;5048031;28;20436;-79
2022/12/22 12:20:34;;;;;;;5.90;1.65;;;11.50;99.90;;;10.57;100.00;96681.25;5049157;28;20875;-80
2022/12/22 12:23:18;;;;;;;3.83;1.40;;;11.40;99.90;;;10.57;100.00;96674.13;5046667;28;20402;-76
2022/12/22 12:25:53;;;;;;;7.83;2.00;;;11.40;99.90;;;10.51;100.00;96663.81;5047201;28;20400;-76
2022/12/22 12:28:35;;;;;;;5.78;1.80;;;11.40;99.90;;;10.23;100.00;96684.47;5045807;28;20742;-75
2022/12/22 12:31:02;;;;;;;4.80;1.30;;;11.20;99.90;;;10.08;100.00;96681.78;5048374;28;20409;-77
2022/12/22 12:33:37;;;;;;;4.63;1.50;;;11.00;99.90;;;9.98;100.00;96705.59;5048951;28;20447;-77
2022/12/22 12:36:13;;;;;;;5.23;1.40;;;10.90;99.90;;;9.93;100.00;96693.16;5049596;28;20435;-75
2022/12/22 12:38:51;;;;;;;6.30;1.98;;;10.90;99.90;;;9.73;100.00;96700.28;5049603;28;20450;-76
2022/12/22 12:41:26;;;;;;;6.65;1.70;;;10.70;99.90;;;9.68;100.00;96701.06;5049226;28;20397;-77
2022/12/22 12:43:55;;;;;;;6.85;1.63;;;10.60;99.90;;;9.60;100.00;96725.38;5031170;28;20401;-75
2022/12/22 12:46:44;;;;;;;7.47;1.77;;;10.50;99.90;;;9.80;100.00;96714.81;5049704;28;20480;-77
2022/12/22 12:50:06;;;;;;;6.13;1.60;;;10.60;99.90;;;9.52;100.00;96715.31;5049655;28;20749;-76
2022/12/22 12:53:12;;;;;;;8.30;1.80;;;10.40;99.90;;;9.56;100.00;96721.63;5030257;28;20402;-77
2022/12/22 12:56:05;;;;;;;4.32;1.50;;;10.40;99.90;;;9.63;100.00;96714.25;5038257;28;20399;-77
2022/12/22 12:58:56;;;;;;;5.70;1.65;;;10.50;99.90;;;9.56;100.00;96725.06;5029537;28;20423;-77
2022/12/22 13:01:56;;;;;;;6.47;1.75;;;10.40;99.90;;;9.49;100.00;96729.81;5029005;28;20399;-77
2022/12/22 13:05:25;;;;;;;8.25;1.70;;;10.50;99.90;;;9.40;100.00;96733.25;5029473;28;20399;-77
2022/12/22 13:08:14;;;;;;;6.15;1.77;;;10.30;99.90;;;9.50;100.00;96738.53;5040950;28;20451;-78
2022/12/22 13:10:44;;;;;;;6.50;1.70;;;10.40;99.90;;;9.43;100.00;96730.84;5047464;28;20960;-77
2022/12/22 13:13:33;;;;;;;4.75;1.40;;;10.40;99.90;;;9.44;100.00;96742.22;5045361;28;20517;-77
2022/12/22 13:16:24;;;;;;;4.43;1.52;;;10.30;99.90;;;9.52;100.00;96755.72;5043130;28;20484;-76
2022/12/22 13:18:50;;;;;;;7.72;1.70;;;10.50;99.90;;;9.49;100.00;96761.50;5038094;28;20440;-77
2022/12/22 13:21:24;;;;;;;6.00;1.60;;;10.40;99.90;;;9.48;100.00;96770.50;5046683;28;20759;-77
2022/12/22 13:24:02;;;;;;;6.53;1.60;;;10.40;99.90;;;9.57;100.00;96768.16;5043947;28;20409;-76
2022/12/22 13:26:34;;;;;;;4.50;1.40;;;10.40;99.90;;;9.79;100.00;96773.22;5035901;28;20422;-77
2022/12/22 13:29:09;;;;;;;4.78;1.40;;;10.50;99.90;;;9.62;100.00;96774.22;5041188;28;20409;-77
2022/12/22 13:31:43;;;;;;;7.93;2.13;;;10.50;99.90;;;9.60;100.00;96772.94;5044490;28;20432;-79
2022/12/22 13:34:39;;;;;;;10.25;2.22;;;10.50;99.90;;;9.62;100.00;96771.59;5045765;28;20890;-76
2022/12/22 13:37:17;;;;;;;5.38;1.42;;;10.50;99.90;;;9.56;100.00;96777.91;5045600;28;20447;-77
2022/12/22 13:40:08;;;;;;;5.65;1.50;;;10.40;99.90;;;9.63;100.00;96775.81;5047930;28;20761;-76
2022/12/22 13:42:37;;;;;;;9.60;1.93;;;10.60;99.90;;;9.58;100.00;96775.81;5042143;28;20437;-76
2022/12/22 13:45:10;;;;;;;8.05;2.08;;;10.50;99.90;;;9.47;100.00;96779.47;5035372;28;20421;-76
2022/12/22 13:47:41;;;;;;;11.07;2.05;;;10.40;99.90;;;9.58;100.00;96780.31;5041596;28;20410;-76
2022/12/22 13:50:20;;;;;;;5.13;1.70;;;10.50;99.90;;;9.65;100.00;96765.81;5038170;28;20506;-77
2022/12/22 13:52:48;;;;;;;4.50;1.38;;;10.50;99.90;;;9.77;100.00;96784.09;5041127;28;20808;-77
2022/12/22 13:55:17;;;;;;;8.00;1.65;;;10.60;99.90;;;9.84;100.00;96783.84;5038488;28;20888;-76
2022/12/22 13:57:43;;;;;;;5.93;1.35;;;10.70;99.90;;;9.93;100.00;96792.81;5041405;28;20423;-76
2022/12/22 14:00:22;;;;;;;6.78;1.38;;;10.80;99.90;;;9.80;100.00;96802.06;5050068;28;20402;-76
2022/12/22 14:02:50;;;;;;;4.07;1.30;;;10.70;99.90;;;9.76;100.00;96792.28;5042120;28;20401;-75
2022/12/22 14:05:17;;;;;;;6.30;1.60;;;10.70;99.90;;;9.70;100.00;96812.56;5043278;28;20855;-78
2022/12/22 14:08:03;;;;;;;5.00;1.70;;;10.60;99.90;;;9.78;100.00;96811.28;5042808;28;20459;-77
2022/12/22 14:10:34;;;;;;;6.80;1.95;;;10.70;99.90;;;9.63;100.00;96804.91;5040358;28;20715;-76
2022/12/22 14:13:06;;;;;;;6.65;1.27;;;10.50;99.90;;;9.54;100.00;96810.97;5024084;28;20415;-76
2022/12/22 14:15:32;;;;;;;8.80;1.70;;;10.40;99.90;;;9.50;100.00;96805.38;5042428;28;20413;-76
2022/12/22 14:18:00;;;;;;;5.13;1.50;;;10.40;99.90;;;9.60;100.00;96812.56;5043617;28;20922;-76
2022/12/22 14:20:31;;;;;;;7.57;1.70;;;10.50;99.90;;;9.53;100.00;96815.44;5044564;28;20413;-76